Taraz Airport
UADD : now visible

Airfield :











YOU CAN JOIN US ON...

 
LOGIN :

Register | Disclaimer

   EN    FR    IT 

 









Legend :    VFR   Marginal VFR   IFR   Intensive IFR   Very Intensive IFR
Visi :
Ceiling :
>= 8 km
>= 3000ft
5 to 8 km
1000 to 3000 ft
1500m to 5 km
500 to 1000 ft
800 to 1500m
200 to 500 ft
< 800m
< 200 ft
Symbols :   Thunderstorms  Fog  Heavy snow  Heavy precipitations  Wind > 20 kt






- Airport Elevation : 2184 ft
- IATA code : DMB


UADD - Taraz

CURRENT METAR :
  • 281730Z 28003MPS 240V030 9999 SCT046 BKN100 00/M03 Q1027 R13/0///65 NOSIG RMK QFE713/0950

EXPIRED METARs :
  • 281700Z 25008MPS 9999 SCT046 BKN100 00/M03 Q1027 R13/0///65 NOSIG RMK QFE712/0950
  • 281630Z 25008MPS 9999 SCT046 BKN100 00/M04 Q1027 R13/0///65 NOSIG RMK QFE712/0950
  • 281600Z 20009MPS 9999 SCT046 BKN100 01/M03 Q1026 R13/0///65 NOSIG RMK QFE712/0949
  • 281530Z 21008G14MPS 9999 SCT046 BKN100 00/M03 Q1026 R13/0///65 NOSIG RMK QFE712/0949
  • 281500Z 21011MPS 9999 SCT046 BKN100 01/M03 Q1025 R13/0///65 NOSIG RMK QFE711/0949
  • 281430Z 21011MPS 9999 NSC 01/M03 Q1025 R13/0///65 NOSIG RMK QFE711/0949

TAF TAF UADD
Valid from the 28 at 18:00 until the 29 at 03:00 UTC


281700Z 2818/2903 22005G10MPS 3100 BR SCT011 BKN050



MET'MAP, your aeronautical weather chart ! - Copyright ORBIFLY December 2007 - Disclaimer

ORBIFLY MET'MAP TEAM :

Programming & Development : Alexandra Zaïnal
Concept & original design : Baudouin d'Aumeries
Assistance for programming : Marc-Olivier Méhu
Technical & hardware support : Manuel Goepfert

Contact : metmap@orbifly.com




SOURCES & CREDITS :

   NOAA       Earth
Advisory